Hovedside
METAR-TAF:

METAR-TAF

Lufthavner :

Yap, Mikronesia

breddegrad: 09-29N, lengdegrad: 138-05E, høyde over havet: 28 m

Gjeldene værobservasjon

Denne rapporten ble laget for 1 time og 41 minutter siden, klokken 01:50 UTC
Flau vind
Temperatur 27°C
Luftfuktighet 89%
Trykk 1009 hPa
Sikt: 19.3 km
Spredte skyer i en høyde av 1600 ft, Bygeskyer.
Brutte skyer i en høyde av 13000 ft
Overskyet i en høyde av 30000 ft

METAR: PTYA 170150Z 00000KT 12SM SCT016CB BKN130 OVC300 27/25 A2981 RMK SHRAE20 CB SE-SW-NW SLP096 T02710246

Tid: 13:31 (03:31 UTC)

Varsel

Denne rapporten ble laget for 3 timer og 39 minutter siden, klokken 23:52 UTC
Varsel gyldig fra 17. klokken 00 UTC til 17. klokken 24 UTC
Vind 10 kt fra Vest-sørvest
Sikt: 10 km
Spredte skyer i en høyde av 1600 ft
Brutte skyer i en høyde av 13000 ft
regnbyger i nærheten

TAF: PTYA 162352Z 1700/1724 24010KT P6SM VCSH SCT016 BKN130

Værobservasjoner og værvarsel for over 4000 flyplasser (METAR- og TAF-rapporter).

Tilgjengelige stasjoner er representert av de røde og gule prikkene på kartet.

Hold musepekeren over prikken for å se navnet på stasjonen.

Klikk så for å se værobservasjoner og -varsler.

For å forandre kartet kan du klikke på den grønne knappen med svart kryss for å zoome inn, på den grønne knappen med strek for å zoome ut, eller på de grønne pilene for å se tilstøtende kart.


METAR-TAF: